Time;durP1;ratioP1;P1;durP2;ratioP2;P2;SDS_P1;SDS_P2;PMS_P1;PMS_P2;Temp;Humidity;BMP_temperature;BMP_pressure;BME280_temperature;BME280_humidity;BME280_pressure;Samples;Min_cycle;Max_cycle;Signal;HPM_P1;HPM_P2
2022/03/25 00:00:50;;;;;;;8.10;7.30;;;6.90;52.60;;;;;;625835;230;26834;-65
2022/03/25 00:03:17;;;;;;;7.45;6.68;;;6.90;52.60;;;;;;649814;221;26803;-65
2022/03/25 00:05:44;;;;;;;7.85;6.62;;;6.90;52.80;;;;;;625845;230;26620;-65
2022/03/25 00:08:13;;;;;;;7.70;6.90;;;6.80;52.80;;;;;;649781;221;26518;-65
2022/03/25 00:10:40;;;;;;;7.35;6.65;;;6.80;52.90;;;;;;637675;225;27186;-65
2022/03/25 00:13:07;;;;;;;6.97;6.05;;;6.80;53.20;;;;;;649835;221;26514;-65
2022/03/25 00:15:34;;;;;;;7.30;6.60;;;6.80;53.30;;;;;;637727;225;26768;-65
2022/03/25 00:18:02;;;;;;;8.00;6.55;;;6.70;53.50;;;;;;649702;221;26524;-64
2022/03/25 00:20:30;;;;;;;7.25;6.57;;;6.70;53.60;;;;;;625870;230;26582;-65
2022/03/25 00:22:58;;;;;;;7.55;6.85;;;6.70;53.70;;;;;;649786;221;26514;-65
2022/03/25 00:25:25;;;;;;;7.62;6.35;;;6.70;53.70;;;;;;625780;230;27033;-65
2022/03/25 00:27:52;;;;;;;7.22;6.32;;;6.70;53.80;;;;;;649765;221;26522;-65
2022/03/25 00:30:19;;;;;;;6.53;5.87;;;6.60;53.90;;;;;;625904;230;26811;-65
2022/03/25 00:32:47;;;;;;;8.40;6.37;;;6.60;54.00;;;;;;651027;219;26575;-65
2022/03/25 00:35:14;;;;;;;7.80;6.80;;;6.60;54.00;;;;;;639109;225;26545;-65
2022/03/25 00:37:42;;;;;;;6.87;6.28;;;6.50;54.10;;;;;;650927;221;26564;-65
2022/03/25 00:40:09;;;;;;;6.62;5.97;;;6.50;54.00;;;;;;638584;225;26464;-65
2022/03/25 00:42:37;;;;;;;6.85;6.18;;;6.50;54.20;;;;;;650530;221;26573;-65
2022/03/25 00:45:05;;;;;;;7.55;6.20;;;6.50;54.30;;;;;;638350;225;26531;-64
2022/03/25 00:47:32;;;;;;;6.30;5.80;;;6.50;54.40;;;;;;650496;221;26562;-64
2022/03/25 00:49:59;;;;;;;7.10;5.93;;;6.40;54.50;;;;;;638292;225;26921;-65
2022/03/25 00:52:26;;;;;;;6.50;5.90;;;6.40;54.60;;;;;;650146;221;26500;-65
2022/03/25 00:54:53;;;;;;;6.30;5.70;;;6.40;55.00;;;;;;626178;230;26639;-65
2022/03/25 00:57:21;;;;;;;6.57;5.70;;;6.40;54.90;;;;;;650070;221;26521;-64
2022/03/25 00:59:49;;;;;;;7.75;6.05;;;6.40;54.90;;;;;;626190;230;26620;-65
2022/03/25 01:02:16;;;;;;;6.55;5.87;;;6.40;54.80;;;;;;650162;221;26513;-65
2022/03/25 01:04:43;;;;;;;5.97;5.47;;;6.40;54.90;;;;;;637967;225;26824;-64
2022/03/25 01:07:11;;;;;;;6.75;6.05;;;6.40;55.00;;;;;;650135;221;26773;-65
2022/03/25 01:09:39;;;;;;;6.75;6.05;;;6.40;55.20;;;;;;637730;225;26504;-65
2022/03/25 01:12:06;;;;;;;6.50;5.90;;;6.40;55.20;;;;;;649777;221;26571;-64
2022/03/25 01:14:33;;;;;;;6.12;5.60;;;6.40;55.20;;;;;;637671;225;26532;-65
2022/03/25 01:17:02;;;;;;;6.53;5.90;;;6.40;55.30;;;;;;649703;221;26582;-64
2022/03/25 01:19:28;;;;;;;6.72;5.97;;;6.40;55.30;;;;;;625653;230;26850;-63
2022/03/25 01:21:55;;;;;;;6.53;5.87;;;6.40;55.50;;;;;;649624;221;26499;-64
2022/03/25 01:24:23;;;;;;;5.82;5.18;;;6.40;55.40;;;;;;625724;230;26828;-64
2022/03/25 01:26:50;;;;;;;6.62;6.03;;;6.30;55.50;;;;;;649641;221;26684;-63
2022/03/25 01:29:19;;;;;;;5.97;5.37;;;6.30;55.70;;;;;;637726;225;26537;-64
2022/03/25 01:31:46;;;;;;;6.18;5.68;;;6.30;55.70;;;;;;649830;221;27046;-64
2022/03/25 01:34:15;;;;;;;6.30;5.60;;;6.30;55.80;;;;;;637727;225;26485;-64
2022/03/25 01:36:42;;;;;;;5.85;5.35;;;6.20;55.90;;;;;;649739;221;26569;-65
2022/03/25 01:39:09;;;;;;;5.87;5.22;;;6.20;55.90;;;;;;625926;230;26620;-63
2022/03/25 01:41:36;;;;;;;6.00;5.45;;;6.30;56.00;;;;;;649833;221;26611;-62
2022/03/25 01:44:04;;;;;;;5.85;5.35;;;6.30;56.00;;;;;;626736;227;26862;-63
2022/03/25 01:46:31;;;;;;;6.47;5.75;;;6.30;56.20;;;;;;651224;221;26595;-62
2022/03/25 01:48:59;;;;;;;5.25;4.80;;;6.20;56.20;;;;;;626897;229;26551;-62
2022/03/25 01:51:29;;;;;;;6.32;5.68;;;6.20;56.40;;;;;;650746;221;26540;-62
2022/03/25 01:54:17;;;;;;;5.95;5.12;;;6.20;56.40;;;;;;638247;225;26824;-62
2022/03/25 01:56:44;;;;;;;5.50;5.00;;;6.20;56.40;;;;;;650301;221;26563;-62
2022/03/25 01:59:12;;;;;;;5.28;4.78;;;6.20;56.50;;;;;;638363;225;26503;-62
2022/03/25 02:01:40;;;;;;;5.85;5.28;;;6.20;56.80;;;;;;650379;221;26580;-62
2022/03/25 02:04:06;;;;;;;6.12;5.30;;;6.10;56.80;;;;;;637942;225;26631;-62
2022/03/25 02:06:34;;;;;;;5.68;5.12;;;6.10;56.80;;;;;;650078;221;26540;-63
2022/03/25 02:09:02;;;;;;;5.90;5.40;;;6.20;56.90;;;;;;638024;225;27116;-62
2022/03/25 02:11:30;;;;;;;6.28;5.30;;;6.20;56.90;;;;;;650158;221;26764;-62
2022/03/25 02:13:57;;;;;;;5.43;5.00;;;6.10;57.00;;;;;;635236;225;26540;-62
2022/03/25 02:16:35;;;;;;;5.45;5.00;;;6.10;57.20;;;;;;615970;233;26619;-62
2022/03/25 02:19:02;;;;;;;5.70;5.18;;;6.10;57.10;;;;;;615851;232;26604;-64
2022/03/25 02:21:31;;;;;;;14.35;6.50;;;6.10;57.60;;;;;;627149;229;26568;-62
2022/03/25 02:23:58;;;;;;;6.50;5.80;;;6.00;57.30;;;;;;627001;229;27222;-62
2022/03/25 02:26:25;;;;;;;9.82;5.22;;;6.10;57.50;;;;;;627001;229;26600;-62
2022/03/25 02:28:52;;;;;;;7.20;5.10;;;6.00;57.40;;;;;;626955;229;26797;-62
2022/03/25 02:31:19;;;;;;;6.78;5.57;;;6.00;57.50;;;;;;626992;229;26548;-62
2022/03/25 02:33:46;;;;;;;6.03;5.12;;;6.00;57.50;;;;;;627057;229;26569;-62
2022/03/25 02:36:14;;;;;;;6.68;5.35;;;6.00;57.50;;;;;;627121;229;26593;-62
2022/03/25 02:38:42;;;;;;;12.00;4.97;;;6.00;57.90;;;;;;627102;226;26541;-62
2022/03/25 02:41:09;;;;;;;5.28;4.78;;;6.00;57.50;;;;;;627179;229;26613;-63
2022/03/25 02:43:37;;;;;;;7.30;5.28;;;6.00;57.60;;;;;;627157;229;26569;-63
2022/03/25 02:46:04;;;;;;;7.12;5.37;;;6.00;57.60;;;;;;627160;229;26834;-63
2022/03/25 02:48:31;;;;;;;7.15;5.22;;;5.90;57.70;;;;;;627035;229;26556;-63
2022/03/25 02:50:58;;;;;;;5.75;5.00;;;5.90;57.80;;;;;;627171;229;26868;-62
2022/03/25 02:53:27;;;;;;;6.15;5.55;;;5.90;57.90;;;;;;627128;225;26533;-63
2022/03/25 02:55:54;;;;;;;5.62;5.12;;;5.90;58.00;;;;;;628129;225;26598;-63
2022/03/25 02:58:21;;;;;;;5.28;4.78;;;5.90;58.00;;;;;;628872;229;26790;-63
2022/03/25 03:00:49;;;;;;;5.45;4.78;;;5.90;58.00;;;;;;628577;229;26579;-63
2022/03/25 03:03:16;;;;;;;5.80;5.03;;;5.90;57.90;;;;;;628473;229;26779;-63
2022/03/25 03:05:43;;;;;;;5.50;5.00;;;5.90;57.70;;;;;;628169;229;26555;-63
2022/03/25 03:08:10;;;;;;;5.50;5.00;;;6.00;57.60;;;;;;628167;229;26539;-63
2022/03/25 03:10:38;;;;;;;4.95;4.45;;;6.10;57.70;;;;;;628175;229;26543;-62
2022/03/25 03:13:06;;;;;;;5.30;4.90;;;6.10;57.70;;;;;;628097;229;26527;-62
2022/03/25 03:15:33;;;;;;;6.15;5.15;;;6.10;57.60;;;;;;627775;229;26597;-63
2022/03/25 03:18:00;;;;;;;5.87;5.30;;;6.10;57.80;;;;;;627852;229;26613;-63
2022/03/25 03:20:27;;;;;;;5.37;4.82;;;6.20;57.60;;;;;;627513;229;26613;-63
2022/03/25 03:22:57;;;;;;;5.20;4.80;;;6.20;57.50;;;;;;627465;229;26847;-63
2022/03/25 03:25:26;;;;;;;5.60;5.10;;;6.20;57.70;;;;;;627466;229;26659;-63
2022/03/25 03:27:52;;;;;;;5.82;4.90;;;6.20;57.70;;;;;;627430;229;26599;-63
2022/03/25 03:30:19;;;;;;;5.18;4.70;;;6.20;57.70;;;;;;627504;229;26846;-63
2022/03/25 03:32:46;;;;;;;6.72;5.40;;;6.10;57.70;;;;;;627183;229;26555;-62
2022/03/25 03:35:14;;;;;;;7.47;5.40;;;6.10;57.80;;;;;;627124;229;26575;-62
2022/03/25 03:37:42;;;;;;;5.87;5.22;;;6.00;58.00;;;;;;627142;229;26560;-62
2022/03/25 03:40:10;;;;;;;6.07;5.30;;;6.00;58.00;;;;;;627155;227;26581;-62
2022/03/25 03:42:38;;;;;;;5.30;4.80;;;6.00;58.00;;;;;;627165;229;26822;-62
2022/03/25 03:45:07;;;;;;;5.53;5.03;;;6.00;58.00;;;;;;627064;229;26588;-62
2022/03/25 03:47:33;;;;;;;7.20;5.22;;;6.00;58.10;;;;;;627145;229;26814;-62
2022/03/25 03:50:00;;;;;;;5.07;4.68;;;5.90;58.30;;;;;;627142;229;26586;-62
2022/03/25 03:52:28;;;;;;;6.10;4.90;;;5.80;58.40;;;;;;627147;229;26561;-62
2022/03/25 03:54:55;;;;;;;5.20;4.72;;;5.80;58.40;;;;;;627008;229;26556;-62
2022/03/25 03:57:23;;;;;;;5.70;5.20;;;5.80;58.40;;;;;;627153;229;26572;-62
2022/03/25 03:59:50;;;;;;;4.93;4.53;;;5.80;58.60;;;;;;627134;229;26548;-62
2022/03/25 04:02:17;;;;;;;5.55;5.05;;;5.70;58.50;;;;;;627184;229;26762;-62
2022/03/25 04:04:44;;;;;;;4.85;4.45;;;5.70;58.50;;;;;;627154;229;26584;-62
2022/03/25 04:07:11;;;;;;;5.03;4.62;;;5.70;58.60;;;;;;628061;227;27254;-62
2022/03/25 04:09:40;;;;;;;4.90;4.50;;;5.70;58.70;;;;;;628653;229;26593;-62
2022/03/25 04:12:09;;;;;;;5.45;4.53;;;5.60;58.90;;;;;;628232;229;26668;-62
2022/03/25 04:14:35;;;;;;;5.37;4.87;;;5.50;58.90;;;;;;628005;229;28724;-62
2022/03/25 04:17:02;;;;;;;5.20;4.80;;;5.60;58.80;;;;;;627882;229;26541;-62
2022/03/25 04:19:29;;;;;;;5.15;4.75;;;5.70;58.50;;;;;;627790;229;26802;-62
2022/03/25 04:21:56;;;;;;;5.40;4.90;;;5.80;58.10;;;;;;627819;229;26590;-62
2022/03/25 04:24:23;;;;;;;5.30;4.80;;;5.80;57.90;;;;;;627725;229;26568;-62
2022/03/25 04:26:51;;;;;;;5.20;4.78;;;5.80;58.00;;;;;;627413;229;26695;-62
2022/03/25 04:29:22;;;;;;;5.25;4.82;;;5.80;58.50;;;;;;627431;229;26620;-62
2022/03/25 04:31:46;;;;;;;5.10;4.60;;;5.70;58.00;;;;;;627362;229;26858;-62
2022/03/25 04:34:14;;;;;;;5.28;4.78;;;5.70;58.00;;;;;;627479;229;26615;-62
2022/03/25 04:36:42;;;;;;;5.22;4.78;;;5.70;58.30;;;;;;627476;229;26607;-62
2022/03/25 04:39:09;;;;;;;6.03;4.97;;;5.70;58.20;;;;;;627463;229;26944;-62
2022/03/25 04:41:36;;;;;;;5.20;4.70;;;5.70;58.20;;;;;;627456;229;26599;-62
2022/03/25 04:44:04;;;;;;;5.30;4.80;;;5.60;58.30;;;;;;627200;229;27220;-62
2022/03/25 04:46:31;;;;;;;5.03;4.62;;;5.60;58.10;;;;;;627183;229;26619;-62
2022/03/25 04:48:58;;;;;;;4.87;4.47;;;5.60;58.20;;;;;;627159;229;27219;-62
2022/03/25 04:51:27;;;;;;;4.97;4.60;;;5.60;58.00;;;;;;627168;229;26568;-62
2022/03/25 04:53:55;;;;;;;4.87;4.40;;;5.60;58.10;;;;;;627116;229;27210;-62
2022/03/25 04:56:22;;;;;;;5.45;4.87;;;5.60;58.20;;;;;;627160;229;26552;-62
2022/03/25 04:58:49;;;;;;;5.65;4.90;;;5.50;58.20;;;;;;627221;229;26814;-62
2022/03/25 05:01:17;;;;;;;5.60;4.93;;;5.50;58.30;;;;;;627145;229;26566;-62
2022/03/25 05:03:45;;;;;;;5.53;5.00;;;5.50;58.30;;;;;;627099;229;26588;-62
2022/03/25 05:06:12;;;;;;;5.22;4.72;;;5.50;58.30;;;;;;627169;229;26564;-62
2022/03/25 05:08:39;;;;;;;4.80;4.40;;;5.50;58.20;;;;;;627136;229;26573;-62
2022/03/25 05:11:07;;;;;;;4.90;4.50;;;5.50;58.30;;;;;;627184;229;26801;-62
2022/03/25 05:13:34;;;;;;;5.60;4.90;;;5.50;58.50;;;;;;627147;229;26626;-62
2022/03/25 05:16:01;;;;;;;4.90;4.50;;;5.50;58.60;;;;;;627136;229;27074;-62
2022/03/25 05:18:29;;;;;;;6.37;4.50;;;5.50;58.70;;;;;;627713;227;26560;-62
2022/03/25 05:20:57;;;;;;;6.22;5.07;;;5.50;58.80;;;;;;628622;229;26582;-62
2022/03/25 05:23:24;;;;;;;5.22;4.62;;;5.50;58.80;;;;;;628248;229;26668;-62
2022/03/25 05:25:51;;;;;;;7.50;4.95;;;5.60;58.80;;;;;;628065;226;26603;-62
2022/03/25 05:28:19;;;;;;;4.87;4.47;;;5.60;58.80;;;;;;627814;229;26806;-62
2022/03/25 05:30:46;;;;;;;5.15;4.68;;;5.60;59.00;;;;;;627789;229;26557;-62
2022/03/25 05:33:13;;;;;;;7.15;4.60;;;5.60;58.90;;;;;;627727;229;26554;-62
2022/03/25 05:35:41;;;;;;;8.65;4.93;;;5.70;59.30;;;;;;627637;229;26582;-62
2022/03/25 05:38:09;;;;;;;5.25;4.20;;;5.70;61.20;;;;;;627436;226;26657;-62
2022/03/25 05:40:38;;;;;;;5.07;4.57;;;5.90;59.80;;;;;;627441;229;26843;-63
2022/03/25 05:43:04;;;;;;;6.32;4.80;;;5.80;59.70;;;;;;627464;229;26956;-62
2022/03/25 05:45:31;;;;;;;6.40;4.43;;;5.80;59.50;;;;;;627447;229;26652;-62
2022/03/25 05:47:58;;;;;;;5.18;4.68;;;5.80;59.10;;;;;;627442;229;26595;-63
2022/03/25 05:50:26;;;;;;;5.10;4.70;;;5.80;59.10;;;;;;627460;229;26598;-63
2022/03/25 05:52:53;;;;;;;5.05;4.62;;;5.80;59.10;;;;;;627441;229;26863;-62
2022/03/25 05:55:21;;;;;;;4.70;4.30;;;5.90;58.80;;;;;;627259;229;26583;-63
2022/03/25 05:57:49;;;;;;;4.78;4.30;;;5.90;58.90;;;;;;627208;229;26557;-63
2022/03/25 06:00:17;;;;;;;4.37;4.05;;;6.10;59.20;;;;;;627206;229;26560;-63
2022/03/25 06:02:44;;;;;;;5.18;4.75;;;6.00;58.70;;;;;;627061;229;26789;-63
2022/03/25 06:05:11;;;;;;;5.97;4.75;;;6.00;58.70;;;;;;627129;229;26588;-63
2022/03/25 06:07:38;;;;;;;5.07;4.40;;;6.10;58.80;;;;;;627175;229;26811;-62
2022/03/25 06:10:07;;;;;;;5.40;4.87;;;6.20;59.00;;;;;;627176;229;26559;-62
2022/03/25 06:12:34;;;;;;;5.18;4.78;;;6.30;58.40;;;;;;627521;229;26529;-62
2022/03/25 06:15:01;;;;;;;5.03;4.53;;;6.30;58.30;;;;;;627508;229;26807;-63
2022/03/25 06:17:29;;;;;;;5.15;4.75;;;6.40;58.10;;;;;;627404;229;26561;-63
2022/03/25 06:19:57;;;;;;;5.22;4.47;;;6.50;58.10;;;;;;627142;229;26560;-63
2022/03/25 06:22:25;;;;;;;4.70;4.30;;;6.40;58.00;;;;;;627168;229;26557;-62
2022/03/25 06:24:52;;;;;;;5.60;5.10;;;6.60;57.90;;;;;;627118;229;26586;-63
2022/03/25 06:27:19;;;;;;;5.68;5.25;;;6.70;57.80;;;;;;627169;229;26814;-63
2022/03/25 06:29:47;;;;;;;5.32;4.70;;;6.80;57.60;;;;;;627486;227;26526;-63
2022/03/25 06:32:14;;;;;;;4.93;4.43;;;6.90;57.70;;;;;;628719;228;26588;-63
2022/03/25 06:34:41;;;;;;;7.07;4.60;;;7.00;57.60;;;;;;630749;225;27183;-64
2022/03/25 06:37:09;;;;;;;9.55;4.72;;;7.10;57.40;;;;;;637066;226;26524;-65
2022/03/25 06:39:37;;;;;;;8.63;5.35;;;7.20;57.30;;;;;;636865;226;26555;-65
2022/03/25 06:42:05;;;;;;;5.90;4.85;;;7.20;57.30;;;;;;636768;226;26471;-66
2022/03/25 06:44:32;;;;;;;7.85;4.65;;;7.30;57.20;;;;;;636670;226;26508;-66
2022/03/25 06:46:59;;;;;;;5.45;4.65;;;7.40;56.80;;;;;;636749;226;26761;-65
2022/03/25 06:49:27;;;;;;;8.30;5.12;;;7.50;56.50;;;;;;636382;226;26501;-65
2022/03/25 06:51:54;;;;;;;7.55;5.20;;;7.60;56.30;;;;;;636286;225;26567;-67
2022/03/25 06:54:22;;;;;;;7.57;5.47;;;7.70;56.20;;;;;;636991;225;26516;-65
2022/03/25 06:56:50;;;;;;;6.80;5.78;;;7.70;56.30;;;;;;636581;225;26575;-66
2022/03/25 06:59:18;;;;;;;6.85;6.10;;;7.90;56.30;;;;;;636502;225;26568;-66
2022/03/25 07:01:44;;;;;;;10.95;6.03;;;8.00;56.00;;;;;;635966;225;27223;-66
2022/03/25 07:04:12;;;;;;;7.45;5.85;;;8.10;55.70;;;;;;637707;225;26517;-64
2022/03/25 07:06:40;;;;;;;9.20;6.15;;;8.20;54.90;;;;;;636881;225;26569;-64
2022/03/25 07:09:09;;;;;;;6.43;5.80;;;8.30;54.50;;;;;;637101;225;26524;-64
2022/03/25 07:11:36;;;;;;;7.65;5.70;;;8.30;54.50;;;;;;638222;225;26531;-65
2022/03/25 07:14:03;;;;;;;6.47;5.78;;;8.40;54.20;;;;;;637205;225;26529;-64
2022/03/25 07:16:31;;;;;;;7.87;5.75;;;8.40;53.70;;;;;;637686;225;26761;-64
2022/03/25 07:18:59;;;;;;;6.70;6.00;;;8.50;53.90;;;;;;636785;225;26552;-65
2022/03/25 07:21:26;;;;;;;8.15;6.55;;;8.60;53.70;;;;;;637643;225;26549;-66
2022/03/25 07:23:54;;;;;;;11.65;6.45;;;8.80;54.30;;;;;;636014;225;26553;-66
2022/03/25 07:26:21;;;;;;;9.48;6.22;;;8.70;53.80;;;;;;637194;225;26808;-65
2022/03/25 07:28:48;;;;;;;9.55;6.85;;;8.90;53.80;;;;;;636397;225;26537;-66
2022/03/25 07:31:18;;;;;;;9.13;6.70;;;9.00;54.00;;;;;;636827;225;26633;-66
2022/03/25 07:33:44;;;;;;;7.62;6.82;;;8.90;53.70;;;;;;643964;221;26754;-65
2022/03/25 07:36:11;;;;;;;10.20;6.93;;;9.00;53.70;;;;;;643880;221;26524;-68
2022/03/25 07:38:38;;;;;;;18.58;6.82;;;9.20;53.70;;;;;;642716;221;26752;-66
2022/03/25 07:41:06;;;;;;;13.23;7.40;;;9.30;53.70;;;;;;641077;220;26507;-66
2022/03/25 07:43:33;;;;;;;10.75;7.53;;;9.30;54.00;;;;;;642358;220;26789;-65
2022/03/25 07:46:00;;;;;;;9.35;7.85;;;9.40;53.60;;;;;;639290;224;26526;-65
2022/03/25 07:48:27;;;;;;;10.57;7.10;;;9.50;53.80;;;;;;639082;224;26614;-65
2022/03/25 07:50:55;;;;;;;12.93;7.82;;;9.60;53.60;;;;;;638954;224;26559;-65
2022/03/25 07:53:23;;;;;;;11.90;7.68;;;9.70;53.60;;;;;;638629;224;26496;-65
2022/03/25 07:55:51;;;;;;;12.15;8.15;;;9.70;53.50;;;;;;649242;221;26616;-62
2022/03/25 07:58:19;;;;;;;88.32;25.67;;;9.70;53.50;;;;;;637972;225;26846;-62
2022/03/25 08:00:47;;;;;;;148.73;33.53;;;9.80;53.10;;;;;;649850;221;26551;-62
2022/03/25 08:03:16;;;;;;;179.43;40.78;;;9.90;53.10;;;;;;637631;225;26463;-62
2022/03/25 08:05:43;;;;;;;134.73;33.15;;;10.00;52.30;;;;;;649636;221;26589;-65
2022/03/25 08:08:11;;;;;;;136.32;32.40;;;10.10;52.40;;;;;;637672;225;26467;-66
2022/03/25 08:10:39;;;;;;;93.75;26.80;;;10.10;52.40;;;;;;649731;221;26512;-65
2022/03/25 08:13:07;;;;;;;82.88;24.20;;;10.20;52.30;;;;;;625998;230;26527;-65
2022/03/25 08:15:34;;;;;;;79.95;23.85;;;10.30;51.90;;;;;;649938;221;26782;-64
2022/03/25 08:18:03;;;;;;;62.45;21.12;;;10.30;51.90;;;;;;637849;225;26725;-64
2022/03/25 08:20:33;;;;;;;65.55;20.48;;;10.50;52.00;;;;;;649398;221;26559;-65
2022/03/25 08:22:59;;;;;;;60.47;20.27;;;10.60;52.10;;;;;;637661;225;26516;-65
2022/03/25 08:28:01;;;;;;;65.97;20.23;;;10.70;52.10;;;;;;625867;230;26938;-65
2022/03/25 08:30:28;;;;;;;53.55;18.70;;;10.80;51.70;;;;;;649750;221;26570;-67
2022/03/25 08:32:57;;;;;;;51.03;19.05;;;10.90;51.70;;;;;;637688;225;26539;-66
2022/03/25 08:35:25;;;;;;;46.17;17.45;;;11.00;51.60;;;;;;649754;221;26547;-67
2022/03/25 08:37:53;;;;;;;46.78;17.02;;;11.00;51.60;;;;;;637488;225;26528;-66
2022/03/25 08:40:21;;;;;;;28.08;13.98;;;11.10;51.70;;;;;;649929;221;26565;-65
2022/03/25 08:42:49;;;;;;;16.95;10.65;;;11.10;51.70;;;;;;637873;225;26520;-66
2022/03/25 08:45:17;;;;;;;16.75;10.90;;;11.20;51.70;;;;;;649862;221;26574;-66
2022/03/25 08:47:44;;;;;;;15.13;10.27;;;11.30;51.70;;;;;;637711;225;26765;-66
2022/03/25 08:50:12;;;;;;;16.73;9.95;;;11.40;51.80;;;;;;649817;221;26561;-66
2022/03/25 08:52:40;;;;;;;19.77;10.18;;;11.50;52.00;;;;;;637792;223;26512;-66
2022/03/25 08:55:09;;;;;;;18.73;10.48;;;11.60;51.90;;;;;;651580;220;26592;-65
2022/03/25 08:57:37;;;;;;;15.35;10.43;;;11.70;52.50;;;;;;638906;225;26882;-64
2022/03/25 09:00:05;;;;;;;20.58;10.73;;;11.70;52.10;;;;;;650716;221;26714;-65
2022/03/25 09:02:32;;;;;;;14.68;9.30;;;11.70;52.30;;;;;;638523;225;26460;-65
2022/03/25 09:05:00;;;;;;;14.75;10.45;;;11.80;52.40;;;;;;650466;221;26925;-66
2022/03/25 09:07:27;;;;;;;17.95;10.65;;;12.00;52.30;;;;;;638419;225;26541;-66
2022/03/25 09:09:55;;;;;;;17.27;10.13;;;12.10;52.20;;;;;;650532;221;26540;-65
2022/03/25 09:12:23;;;;;;;14.80;9.65;;;12.20;52.10;;;;;;638123;225;26459;-65
2022/03/25 09:14:51;;;;;;;14.13;9.98;;;12.40;52.00;;;;;;650044;221;26539;-65
2022/03/25 09:17:19;;;;;;;13.40;9.57;;;12.50;52.10;;;;;;626161;230;26607;-65
2022/03/25 09:19:47;;;;;;;15.02;9.65;;;12.40;52.00;;;;;;650125;221;26516;-65
2022/03/25 09:22:15;;;;;;;14.23;9.60;;;12.40;52.30;;;;;;638046;225;26476;-65
2022/03/25 09:24:42;;;;;;;14.60;9.45;;;12.40;52.20;;;;;;650077;221;26536;-65
2022/03/25 09:27:10;;;;;;;14.73;9.38;;;12.40;52.30;;;;;;638028;225;26453;-66
2022/03/25 09:29:37;;;;;;;14.50;10.02;;;12.70;52.30;;;;;;649792;221;26529;-66
2022/03/25 09:32:06;;;;;;;11.73;8.70;;;12.70;52.30;;;;;;625833;230;26941;-64
2022/03/25 09:37:06;;;;;;;12.93;9.65;;;12.90;52.10;;;;;;625868;230;26612;-66
2022/03/25 09:39:34;;;;;;;13.07;9.50;;;13.00;52.20;;;;;;649764;221;26534;-65
2022/03/25 09:42:02;;;;;;;11.95;9.02;;;13.10;52.70;;;;;;637727;225;26513;-66
2022/03/25 09:44:29;;;;;;;14.00;9.65;;;13.10;52.20;;;;;;649636;221;26494;-66
2022/03/25 09:46:56;;;;;;;12.88;9.35;;;13.20;52.30;;;;;;637746;225;26750;-65
2022/03/25 09:49:24;;;;;;;13.90;9.93;;;13.30;52.40;;;;;;649926;221;26547;-66
2022/03/25 09:51:51;;;;;;;13.95;9.75;;;13.40;52.80;;;;;;625889;230;26839;-65
2022/03/25 09:54:18;;;;;;;11.30;8.60;;;13.30;52.50;;;;;;649789;221;26523;-67
2022/03/25 09:56:45;;;;;;;12.13;8.52;;;13.30;52.40;;;;;;637296;224;26702;-65
2022/03/25 09:59:16;;;;;;;12.75;8.88;;;13.20;52.50;;;;;;649823;221;26577;-66
2022/03/25 10:01:42;;;;;;;13.43;9.40;;;13.40;52.40;;;;;;637649;225;26814;-66
2022/03/25 10:04:10;;;;;;;10.57;9.40;;;13.60;52.40;;;;;;649751;221;26511;-66
2022/03/25 10:06:46;;;;;;;9.80;8.52;;;13.60;52.60;;;;;;637451;225;26486;-65
2022/03/25 10:09:13;;;;;;;15.80;9.65;;;13.80;52.50;;;;;;650968;220;26534;-66
2022/03/25 10:11:42;;;;;;;11.02;9.15;;;13.70;52.40;;;;;;638042;225;26484;-66
2022/03/25 10:14:14;;;;;;;13.80;9.35;;;13.80;52.30;;;;;;650570;221;26582;-66
2022/03/25 10:16:37;;;;;;;13.57;9.98;;;13.80;52.30;;;;;;638092;225;26539;-65
2022/03/25 10:19:05;;;;;;;11.38;9.10;;;13.70;52.40;;;;;;650419;221;26930;-65
2022/03/25 10:21:32;;;;;;;11.90;9.82;;;13.70;52.50;;;;;;638377;225;26503;-66
2022/03/25 10:23:59;;;;;;;11.57;9.82;;;13.80;52.40;;;;;;648585;221;26774;-66
2022/03/25 10:26:41;;;;;;;12.27;10.10;;;13.80;52.30;;;;;;638025;225;26491;-66
2022/03/25 10:29:16;;;;;;;11.18;9.65;;;14.00;52.20;;;;;;650157;221;26527;-65
2022/03/25 10:31:43;;;;;;;11.18;9.00;;;14.00;52.20;;;;;;626534;230;26535;-66
2022/03/25 10:34:11;;;;;;;12.37;10.43;;;14.10;52.20;;;;;;650176;221;26513;-66
2022/03/25 10:36:39;;;;;;;10.60;9.43;;;14.20;52.00;;;;;;637813;225;26447;-64
2022/03/25 10:39:13;;;;;;;12.27;9.75;;;14.20;52.00;;;;;;650554;221;26509;-66
2022/03/25 10:41:36;;;;;;;10.45;9.32;;;14.20;52.00;;;;;;625963;230;26582;-66
2022/03/25 10:44:03;;;;;;;12.63;9.77;;;14.40;52.10;;;;;;649771;221;26778;-65
2022/03/25 10:46:31;;;;;;;14.65;9.32;;;14.40;52.00;;;;;;625873;228;26607;-65
2022/03/25 10:48:59;;;;;;;10.27;8.93;;;14.60;51.80;;;;;;649791;221;26536;-66
2022/03/25 10:51:27;;;;;;;11.48;9.68;;;14.70;51.70;;;;;;637702;225;26505;-64
2022/03/25 10:53:57;;;;;;;11.70;9.50;;;14.70;51.90;;;;;;649734;221;26507;-65
2022/03/25 10:56:24;;;;;;;13.13;9.07;;;14.70;51.60;;;;;;637693;225;26540;-65
2022/03/25 10:58:53;;;;;;;11.75;9.57;;;14.80;51.40;;;;;;637625;225;26568;-65
2022/03/25 11:01:20;;;;;;;10.43;8.85;;;14.80;51.40;;;;;;649865;221;26567;-66
2022/03/25 11:03:49;;;;;;;11.38;8.90;;;14.80;51.40;;;;;;637748;225;26716;-66
2022/03/25 11:06:18;;;;;;;10.85;8.75;;;14.80;51.60;;;;;;649877;221;26594;-61
2022/03/25 11:08:45;;;;;;;11.30;7.97;;;14.80;51.30;;;;;;637775;225;26557;-66
2022/03/25 11:11:12;;;;;;;12.07;9.68;;;14.80;51.30;;;;;;649855;221;26530;-65
2022/03/25 11:13:39;;;;;;;10.05;8.38;;;14.90;51.40;;;;;;637747;225;26445;-65
2022/03/25 11:16:07;;;;;;;11.55;9.15;;;14.90;51.50;;;;;;647274;220;26790;-65
2022/03/25 11:18:34;;;;;;;14.87;9.65;;;15.10;51.40;;;;;;646799;222;26560;-64
2022/03/25 11:21:01;;;;;;;17.05;9.88;;;15.10;51.70;;;;;;646315;222;26515;-63
2022/03/25 11:23:28;;;;;;;16.73;8.93;;;15.20;51.30;;;;;;646003;222;26524;-65
2022/03/25 11:25:55;;;;;;;17.92;10.32;;;15.20;51.30;;;;;;645832;222;26537;-65
2022/03/25 11:28:27;;;;;;;21.30;9.77;;;15.30;51.20;;;;;;645817;222;26504;-68
2022/03/25 11:30:58;;;;;;;17.00;9.98;;;15.40;51.00;;;;;;645760;223;26497;-66
2022/03/25 11:33:25;;;;;;;20.83;10.38;;;15.30;51.00;;;;;;645799;222;26516;-67
2022/03/25 11:36:04;;;;;;;24.20;9.60;;;15.40;50.80;;;;;;643443;221;26811;-67
2022/03/25 11:38:32;;;;;;;22.90;9.77;;;15.60;50.80;;;;;;641697;221;26559;-65
2022/03/25 11:41:01;;;;;;;27.05;10.32;;;15.60;50.70;;;;;;638068;225;26449;-65
2022/03/25 11:43:28;;;;;;;23.15;10.43;;;15.60;50.60;;;;;;649803;221;26511;-65
2022/03/25 11:46:03;;;;;;;25.60;10.40;;;15.70;50.70;;;;;;638006;225;26511;-65
2022/03/25 11:48:32;;;;;;;27.42;10.27;;;15.70;50.90;;;;;;644033;221;26536;-65
2022/03/25 11:51:00;;;;;;;17.87;9.25;;;15.70;50.90;;;;;;646441;221;26569;-65
2022/03/25 11:53:29;;;;;;;15.35;9.05;;;15.50;50.20;;;;;;647559;221;26753;-66
2022/03/25 11:55:59;;;;;;;18.40;8.98;;;15.60;50.60;;;;;;635226;224;26538;-65
2022/03/25 11:58:26;;;;;;;16.37;9.13;;;15.80;49.90;;;;;;632706;225;26559;-65
2022/03/25 12:00:53;;;;;;;11.60;9.13;;;15.90;50.00;;;;;;649718;221;27101;-65
2022/03/25 12:03:20;;;;;;;14.90;9.38;;;15.80;49.60;;;;;;636896;225;26513;-65
2022/03/25 12:05:59;;;;;;;12.37;9.13;;;15.90;49.50;;;;;;648414;221;27285;-65
2022/03/25 12:08:28;;;;;;;16.10;8.95;;;16.00;49.60;;;;;;639792;221;26529;-66
2022/03/25 12:10:55;;;;;;;15.13;9.20;;;16.00;49.40;;;;;;634626;225;26434;-65
2022/03/25 12:13:23;;;;;;;13.75;8.32;;;16.00;49.60;;;;;;620139;230;26481;-64
2022/03/25 12:15:52;;;;;;;11.77;8.07;;;15.90;49.60;;;;;;631718;225;26605;-65
2022/03/25 12:18:32;;;;;;;15.30;8.45;;;15.90;49.70;;;;;;624873;230;26539;-66
2022/03/25 12:20:59;;;;;;;10.45;8.60;;;15.90;49.70;;;;;;643314;221;26518;-66
2022/03/25 12:23:27;;;;;;;11.93;8.32;;;16.00;49.80;;;;;;628680;225;26545;-66
2022/03/25 12:25:55;;;;;;;14.32;8.48;;;16.00;49.50;;;;;;626710;226;26574;-66
2022/03/25 12:28:23;;;;;;;15.15;8.30;;;16.00;49.70;;;;;;631908;226;26559;-65
2022/03/25 12:30:52;;;;;;;11.98;8.10;;;16.10;49.50;;;;;;625248;229;26602;-66
2022/03/25 12:33:20;;;;;;;12.98;8.77;;;16.20;49.30;;;;;;623297;227;26574;-65
2022/03/25 12:35:48;;;;;;;11.95;7.93;;;16.20;49.50;;;;;;635778;225;26504;-66
2022/03/25 12:38:18;;;;;;;8.93;7.78;;;16.30;49.30;;;;;;633299;227;26524;-66
2022/03/25 12:40:45;;;;;;;10.73;8.23;;;16.30;49.20;;;;;;617111;231;26861;-66
2022/03/25 12:43:12;;;;;;;11.02;8.25;;;16.20;49.00;;;;;;632091;225;26569;-66
2022/03/25 12:45:41;;;;;;;10.75;7.60;;;16.30;49.10;;;;;;618961;231;26785;-66
2022/03/25 12:48:11;;;;;;;12.63;8.35;;;16.60;48.80;;;;;;632650;227;26512;-66
2022/03/25 12:50:41;;;;;;;9.50;7.55;;;16.60;48.80;;;;;;634131;225;26688;-66
2022/03/25 12:53:09;;;;;;;10.70;7.78;;;16.70;48.60;;;;;;629163;226;26541;-66
2022/03/25 12:55:37;;;;;;;10.20;7.68;;;16.70;48.60;;;;;;637553;225;26503;-65